sensor_id;sensor_type;location;lat;lon;timestamp;P1;durP1;ratioP1;P2;durP2;ratioP2
10031;SDS011;5056;44.272;19.892;2023-12-14T04:22:59;5.23;;;4.80;;
10031;SDS011;5056;44.272;19.892;2023-12-14T04:25:26;4.35;;;3.95;;
10031;SDS011;5056;44.272;19.892;2023-12-14T04:30:57;4.22;;;3.80;;
10031;SDS011;5056;44.272;19.892;2023-12-14T04:33:24;4.93;;;4.53;;
10031;SDS011;5056;44.272;19.892;2023-12-14T04:35:51;5.55;;;5.10;;
10031;SDS011;5056;44.272;19.892;2023-12-14T04:38:20;6.05;;;5.45;;
10031;SDS011;5056;44.272;19.892;2023-12-14T04:40:47;7.28;;;6.28;;
10031;SDS011;5056;44.272;19.892;2023-12-14T04:43:14;7.43;;;6.72;;
10031;SDS011;5056;44.272;19.892;2023-12-14T04:45:41;8.55;;;7.65;;
10031;SDS011;5056;44.272;19.892;2023-12-14T04:48:11;9.40;;;8.40;;
10031;SDS011;5056;44.272;19.892;2023-12-14T04:50:38;7.73;;;6.97;;
10031;SDS011;5056;44.272;19.892;2023-12-14T04:53:05;6.68;;;6.00;;
10031;SDS011;5056;44.272;19.892;2023-12-14T04:55:35;7.38;;;6.80;;
10031;SDS011;5056;44.272;19.892;2023-12-14T05:01:05;3.05;;;2.85;;
10031;SDS011;5056;44.272;19.892;2023-12-14T05:03:31;3.92;;;3.63;;
10031;SDS011;5056;44.272;19.892;2023-12-14T05:05:59;5.10;;;4.68;;
10031;SDS011;5056;44.272;19.892;2023-12-14T05:08:26;4.80;;;4.40;;
10031;SDS011;5056;44.272;19.892;2023-12-14T05:10:54;6.90;;;6.20;;
10031;SDS011;5056;44.272;19.892;2023-12-14T05:13:21;5.30;;;4.80;;
10031;SDS011;5056;44.272;19.892;2023-12-14T05:15:48;4.70;;;4.30;;
10031;SDS011;5056;44.272;19.892;2023-12-14T05:18:15;4.60;;;4.20;;
10031;SDS011;5056;44.272;19.892;2023-12-14T05:20:43;5.37;;;4.97;;
10031;SDS011;5056;44.272;19.892;2023-12-14T05:23:10;4.60;;;4.30;;
10031;SDS011;5056;44.272;19.892;2023-12-14T05:25:38;4.50;;;4.20;;
10031;SDS011;5056;44.272;19.892;2023-12-14T05:28:09;6.57;;;4.22;;
10031;SDS011;5056;44.272;19.892;2023-12-14T05:30:36;4.55;;;3.63;;
10031;SDS011;5056;44.272;19.892;2023-12-14T05:33:03;3.30;;;3.10;;
10031;SDS011;5056;44.272;19.892;2023-12-14T05:35:30;4.80;;;4.40;;
10031;SDS011;5056;44.272;19.892;2023-12-14T05:37:57;6.68;;;6.07;;
10031;SDS011;5056;44.272;19.892;2023-12-14T05:40:24;6.50;;;5.90;;
10031;SDS011;5056;44.272;19.892;2023-12-14T05:42:51;6.15;;;5.70;;
10031;SDS011;5056;44.272;19.892;2023-12-14T05:45:20;5.93;;;5.43;;
10031;SDS011;5056;44.272;19.892;2023-12-14T05:47:47;5.82;;;5.32;;
10031;SDS011;5056;44.272;19.892;2023-12-14T05:50:16;7.35;;;6.70;;
10031;SDS011;5056;44.272;19.892;2023-12-14T05:52:43;8.67;;;7.77;;
10031;SDS011;5056;44.272;19.892;2023-12-14T05:55:11;5.57;;;5.03;;
10031;SDS011;5056;44.272;19.892;2023-12-14T05:57:43;4.78;;;4.30;;
10031;SDS011;5056;44.272;19.892;2023-12-14T06:00:15;4.72;;;4.32;;
10031;SDS011;5056;44.272;19.892;2023-12-14T06:02:44;7.88;;;7.07;;
10031;SDS011;5056;44.272;19.892;2023-12-14T06:05:11;16.25;;;14.02;;
10031;SDS011;5056;44.272;19.892;2023-12-14T06:07:40;49.17;;;44.37;;
10031;SDS011;5056;44.272;19.892;2023-12-14T06:10:07;32.30;;;29.30;;
10031;SDS011;5056;44.272;19.892;2023-12-14T06:12:37;27.30;;;24.85;;
10031;SDS011;5056;44.272;19.892;2023-12-14T06:15:04;19.42;;;17.73;;
10031;SDS011;5056;44.272;19.892;2023-12-14T06:17:35;19.20;;;17.60;;
10031;SDS011;5056;44.272;19.892;2023-12-14T06:20:12;20.40;;;18.83;;
10031;SDS011;5056;44.272;19.892;2023-12-14T06:22:40;16.40;;;15.00;;
10031;SDS011;5056;44.272;19.892;2023-12-14T06:25:07;20.00;;;18.20;;
10031;SDS011;5056;44.272;19.892;2023-12-14T06:27:37;26.85;;;24.05;;
10031;SDS011;5056;44.272;19.892;2023-12-14T06:30:07;25.60;;;23.02;;
10031;SDS011;5056;44.272;19.892;2023-12-14T06:32:35;32.83;;;29.65;;
10031;SDS011;5056;44.272;19.892;2023-12-14T06:35:05;36.83;;;33.22;;
10031;SDS011;5056;44.272;19.892;2023-12-14T06:37:35;32.90;;;29.80;;
10031;SDS011;5056;44.272;19.892;2023-12-14T06:40:02;33.83;;;30.40;;
10031;SDS011;5056;44.272;19.892;2023-12-14T06:42:32;29.97;;;27.17;;
10031;SDS011;5056;44.272;19.892;2023-12-14T06:45:03;30.65;;;27.75;;
10031;SDS011;5056;44.272;19.892;2023-12-14T06:47:31;36.30;;;32.92;;
10031;SDS011;5056;44.272;19.892;2023-12-14T06:49:58;36.63;;;33.22;;
10031;SDS011;5056;44.272;19.892;2023-12-14T06:52:25;39.80;;;35.97;;
10031;SDS011;5056;44.272;19.892;2023-12-14T06:54:54;62.83;;;56.40;;
10031;SDS011;5056;44.272;19.892;2023-12-14T06:57:21;75.40;;;67.63;;
10031;SDS011;5056;44.272;19.892;2023-12-14T06:59:48;82.25;;;73.75;;
10031;SDS011;5056;44.272;19.892;2023-12-14T07:02:15;80.82;;;72.50;;
10031;SDS011;5056;44.272;19.892;2023-12-14T07:04:43;85.32;;;76.53;;
10031;SDS011;5056;44.272;19.892;2023-12-14T07:07:17;85.93;;;77.13;;
10031;SDS011;5056;44.272;19.892;2023-12-14T07:09:44;102.95;;;92.22;;
10031;SDS011;5056;44.272;19.892;2023-12-14T07:12:16;97.63;;;87.65;;
10031;SDS011;5056;44.272;19.892;2023-12-14T07:17:27;103.65;;;93.38;;
10031;SDS011;5056;44.272;19.892;2023-12-14T07:19:55;108.35;;;97.55;;
10031;SDS011;5056;44.272;19.892;2023-12-14T07:22:22;105.72;;;95.05;;
10031;SDS011;5056;44.272;19.892;2023-12-14T07:24:50;77.43;;;69.80;;
10031;SDS011;5056;44.272;19.892;2023-12-14T07:27:28;66.47;;;59.88;;
10031;SDS011;5056;44.272;19.892;2023-12-14T07:29:55;60.72;;;54.47;;
10031;SDS011;5056;44.272;19.892;2023-12-14T07:32:27;50.58;;;45.10;;
10031;SDS011;5056;44.272;19.892;2023-12-14T07:34:54;50.53;;;45.03;;
10031;SDS011;5056;44.272;19.892;2023-12-14T07:37:21;63.60;;;56.67;;
10031;SDS011;5056;44.272;19.892;2023-12-14T07:39:48;67.07;;;59.80;;
10031;SDS011;5056;44.272;19.892;2023-12-14T07:42:17;79.20;;;70.70;;
10031;SDS011;5056;44.272;19.892;2023-12-14T07:44:48;96.28;;;85.85;;
10031;SDS011;5056;44.272;19.892;2023-12-14T07:47:15;103.60;;;92.45;;
10031;SDS011;5056;44.272;19.892;2023-12-14T07:49:44;104.30;;;93.50;;
10031;SDS011;5056;44.272;19.892;2023-12-14T07:52:12;89.90;;;80.30;;
10031;SDS011;5056;44.272;19.892;2023-12-14T07:54:39;84.53;;;75.75;;
10031;SDS011;5056;44.272;19.892;2023-12-14T07:57:08;81.47;;;73.25;;
10031;SDS011;5056;44.272;19.892;2023-12-14T08:02:25;66.57;;;59.88;;
10031;SDS011;5056;44.272;19.892;2023-12-14T08:04:53;58.17;;;52.30;;
10031;SDS011;5056;44.272;19.892;2023-12-14T08:07:20;54.67;;;49.42;;
10031;SDS011;5056;44.272;19.892;2023-12-14T08:09:48;56.08;;;50.47;;
10031;SDS011;5056;44.272;19.892;2023-12-14T08:12:15;53.72;;;48.33;;
10031;SDS011;5056;44.272;19.892;2023-12-14T08:14:43;59.13;;;53.35;;
10031;SDS011;5056;44.272;19.892;2023-12-14T08:17:14;76.35;;;68.47;;
10031;SDS011;5056;44.272;19.892;2023-12-14T08:19:42;75.13;;;67.47;;
10031;SDS011;5056;44.272;19.892;2023-12-14T08:22:09;75.72;;;68.03;;
10031;SDS011;5056;44.272;19.892;2023-12-14T08:24:37;94.40;;;84.80;;
10031;SDS011;5056;44.272;19.892;2023-12-14T08:27:06;98.10;;;88.47;;
10031;SDS011;5056;44.272;19.892;2023-12-14T08:29:33;91.20;;;82.10;;
10031;SDS011;5056;44.272;19.892;2023-12-14T08:32:02;89.25;;;80.20;;
10031;SDS011;5056;44.272;19.892;2023-12-14T08:34:30;83.07;;;74.68;;
10031;SDS011;5056;44.272;19.892;2023-12-14T08:36:57;62.43;;;55.90;;
10031;SDS011;5056;44.272;19.892;2023-12-14T08:39:28;43.28;;;39.03;;
10031;SDS011;5056;44.272;19.892;2023-12-14T08:41:55;40.00;;;36.13;;
10031;SDS011;5056;44.272;19.892;2023-12-14T08:44:22;31.50;;;28.60;;
10031;SDS011;5056;44.272;19.892;2023-12-14T08:46:49;23.95;;;21.60;;
10031;SDS011;5056;44.272;19.892;2023-12-14T08:49:16;20.33;;;18.52;;
10031;SDS011;5056;44.272;19.892;2023-12-14T08:51:45;21.55;;;19.65;;
10031;SDS011;5056;44.272;19.892;2023-12-14T08:54:13;26.30;;;23.90;;
10031;SDS011;5056;44.272;19.892;2023-12-14T08:56:41;28.35;;;25.77;;
10031;SDS011;5056;44.272;19.892;2023-12-14T08:59:08;24.67;;;22.33;;
10031;SDS011;5056;44.272;19.892;2023-12-14T09:01:35;33.13;;;30.03;;
10031;SDS011;5056;44.272;19.892;2023-12-14T09:04:02;26.42;;;24.02;;
10031;SDS011;5056;44.272;19.892;2023-12-14T09:06:29;20.98;;;18.98;;
10031;SDS011;5056;44.272;19.892;2023-12-14T09:08:58;21.77;;;19.75;;
10031;SDS011;5056;44.272;19.892;2023-12-14T09:11:28;24.88;;;22.58;;
10031;SDS011;5056;44.272;19.892;2023-12-14T09:13:56;24.83;;;22.53;;
10031;SDS011;5056;44.272;19.892;2023-12-14T09:16:27;22.80;;;20.65;;
10031;SDS011;5056;44.272;19.892;2023-12-14T09:18:57;20.00;;;18.20;;
10031;SDS011;5056;44.272;19.892;2023-12-14T09:21:27;35.57;;;32.13;;
10031;SDS011;5056;44.272;19.892;2023-12-14T09:23:54;28.10;;;25.37;;
10031;SDS011;5056;44.272;19.892;2023-12-14T09:26:24;28.67;;;25.67;;
10031;SDS011;5056;44.272;19.892;2023-12-14T09:28:52;24.13;;;20.70;;
10031;SDS011;5056;44.272;19.892;2023-12-14T09:31:19;23.63;;;21.10;;
10031;SDS011;5056;44.272;19.892;2023-12-14T09:33:46;27.20;;;24.47;;
10031;SDS011;5056;44.272;19.892;2023-12-14T09:36:13;32.27;;;28.33;;
10031;SDS011;5056;44.272;19.892;2023-12-14T09:38:41;24.00;;;21.70;;
10031;SDS011;5056;44.272;19.892;2023-12-14T09:41:08;28.77;;;25.80;;
10031;SDS011;5056;44.272;19.892;2023-12-14T09:43:38;35.77;;;32.07;;
10031;SDS011;5056;44.272;19.892;2023-12-14T09:46:07;40.23;;;36.03;;
10031;SDS011;5056;44.272;19.892;2023-12-14T09:48:34;30.40;;;27.37;;
10031;SDS011;5056;44.272;19.892;2023-12-14T09:51:01;33.78;;;30.65;;
10031;SDS011;5056;44.272;19.892;2023-12-14T09:53:31;28.35;;;25.83;;
10031;SDS011;5056;44.272;19.892;2023-12-14T09:55:58;35.97;;;32.57;;
10031;SDS011;5056;44.272;19.892;2023-12-14T09:58:26;29.33;;;26.43;;
10031;SDS011;5056;44.272;19.892;2023-12-14T10:00:57;27.07;;;24.40;;
10031;SDS011;5056;44.272;19.892;2023-12-14T10:03:26;25.47;;;23.03;;
10031;SDS011;5056;44.272;19.892;2023-12-14T10:05:54;24.60;;;22.20;;
10031;SDS011;5056;44.272;19.892;2023-12-14T10:08:22;26.73;;;24.23;;
10031;SDS011;5056;44.272;19.892;2023-12-14T10:15:50;31.97;;;28.97;;
10031;SDS011;5056;44.272;19.892;2023-12-14T10:18:22;34.20;;;31.05;;
10031;SDS011;5056;44.272;19.892;2023-12-14T10:20:50;30.90;;;28.10;;
10031;SDS011;5056;44.272;19.892;2023-12-14T10:23:19;74.70;;;67.57;;
10031;SDS011;5056;44.272;19.892;2023-12-14T10:25:47;46.87;;;42.53;;
10031;SDS011;5056;44.272;19.892;2023-12-14T10:28:14;32.83;;;29.73;;
10031;SDS011;5056;44.272;19.892;2023-12-14T10:30:43;33.33;;;30.20;;
10031;SDS011;5056;44.272;19.892;2023-12-14T10:33:10;29.33;;;26.60;;
10031;SDS011;5056;44.272;19.892;2023-12-14T10:35:42;32.63;;;29.53;;
10031;SDS011;5056;44.272;19.892;2023-12-14T10:38:12;33.60;;;30.30;;
10031;SDS011;5056;44.272;19.892;2023-12-14T10:40:39;34.42;;;31.00;;
10031;SDS011;5056;44.272;19.892;2023-12-14T10:43:08;26.17;;;23.73;;
10031;SDS011;5056;44.272;19.892;2023-12-14T10:45:39;24.70;;;22.40;;
10031;SDS011;5056;44.272;19.892;2023-12-14T10:48:10;29.48;;;26.73;;
10031;SDS011;5056;44.272;19.892;2023-12-14T10:50:38;23.63;;;21.42;;
10031;SDS011;5056;44.272;19.892;2023-12-14T10:53:08;25.02;;;22.73;;
10031;SDS011;5056;44.272;19.892;2023-12-14T10:55:36;26.83;;;24.35;;
10031;SDS011;5056;44.272;19.892;2023-12-14T10:58:05;27.00;;;24.50;;
10031;SDS011;5056;44.272;19.892;2023-12-14T11:00:31;31.25;;;28.33;;
10031;SDS011;5056;44.272;19.892;2023-12-14T11:03:00;24.00;;;21.90;;
10031;SDS011;5056;44.272;19.892;2023-12-14T11:05:27;24.60;;;22.17;;
10031;SDS011;5056;44.272;19.892;2023-12-14T11:07:55;33.53;;;30.27;;
10031;SDS011;5056;44.272;19.892;2023-12-14T11:10:35;30.92;;;27.95;;
10031;SDS011;5056;44.272;19.892;2023-12-14T11:13:03;27.27;;;24.80;;
10031;SDS011;5056;44.272;19.892;2023-12-14T11:15:35;27.10;;;24.40;;
10031;SDS011;5056;44.272;19.892;2023-12-14T11:18:25;33.45;;;30.00;;
10031;SDS011;5056;44.272;19.892;2023-12-14T11:20:54;37.92;;;34.05;;
10031;SDS011;5056;44.272;19.892;2023-12-14T11:23:27;31.55;;;28.25;;
10031;SDS011;5056;44.272;19.892;2023-12-14T11:25:58;27.98;;;25.17;;
10031;SDS011;5056;44.272;19.892;2023-12-14T11:28:28;26.10;;;23.52;;
10031;SDS011;5056;44.272;19.892;2023-12-14T11:30:58;29.58;;;26.58;;
10031;SDS011;5056;44.272;19.892;2023-12-14T11:33:27;26.60;;;23.77;;
10031;SDS011;5056;44.272;19.892;2023-12-14T11:35:55;24.83;;;22.17;;
10031;SDS011;5056;44.272;19.892;2023-12-14T11:38:24;26.05;;;23.45;;
10031;SDS011;5056;44.272;19.892;2023-12-14T11:40:51;22.40;;;20.25;;
10031;SDS011;5056;44.272;19.892;2023-12-14T11:43:20;24.13;;;21.70;;
10031;SDS011;5056;44.272;19.892;2023-12-14T11:45:49;25.13;;;22.63;;
10031;SDS011;5056;44.272;19.892;2023-12-14T11:48:17;24.80;;;22.30;;
10031;SDS011;5056;44.272;19.892;2023-12-14T11:50:46;26.67;;;23.95;;
10031;SDS011;5056;44.272;19.892;2023-12-14T11:53:15;27.83;;;24.92;;
10031;SDS011;5056;44.272;19.892;2023-12-14T11:55:42;24.90;;;22.40;;
10031;SDS011;5056;44.272;19.892;2023-12-14T11:58:11;23.10;;;20.80;;
10031;SDS011;5056;44.272;19.892;2023-12-14T12:00:42;26.83;;;24.23;;
10031;SDS011;5056;44.272;19.892;2023-12-14T12:03:12;24.80;;;22.48;;
10031;SDS011;5056;44.272;19.892;2023-12-14T12:05:41;25.25;;;22.85;;
10031;SDS011;5056;44.272;19.892;2023-12-14T12:08:10;21.83;;;19.73;;
10031;SDS011;5056;44.272;19.892;2023-12-14T12:10:39;20.80;;;18.90;;
10031;SDS011;5056;44.272;19.892;2023-12-14T12:13:07;24.17;;;21.87;;
10031;SDS011;5056;44.272;19.892;2023-12-14T12:15:39;25.17;;;22.88;;
10031;SDS011;5056;44.272;19.892;2023-12-14T12:18:08;25.77;;;23.35;;
10031;SDS011;5056;44.272;19.892;2023-12-14T12:20:39;21.50;;;19.48;;
10031;SDS011;5056;44.272;19.892;2023-12-14T12:23:08;28.48;;;25.88;;
10031;SDS011;5056;44.272;19.892;2023-12-14T12:25:38;26.10;;;23.70;;
10031;SDS011;5056;44.272;19.892;2023-12-14T12:28:08;26.00;;;23.58;;
10031;SDS011;5056;44.272;19.892;2023-12-14T12:30:35;23.73;;;21.63;;
10031;SDS011;5056;44.272;19.892;2023-12-14T12:33:03;23.63;;;21.43;;
10031;SDS011;5056;44.272;19.892;2023-12-14T12:35:33;19.50;;;17.70;;
10031;SDS011;5056;44.272;19.892;2023-12-14T12:38:00;21.55;;;19.65;;
10031;SDS011;5056;44.272;19.892;2023-12-14T12:40:28;23.25;;;21.15;;
10031;SDS011;5056;44.272;19.892;2023-12-14T12:42:59;24.27;;;21.98;;
10031;SDS011;5056;44.272;19.892;2023-12-14T12:45:26;25.63;;;23.25;;
10031;SDS011;5056;44.272;19.892;2023-12-14T12:47:54;25.77;;;23.38;;
10031;SDS011;5056;44.272;19.892;2023-12-14T12:50:21;21.10;;;19.20;;
10031;SDS011;5056;44.272;19.892;2023-12-14T12:52:52;99.65;;;61.58;;
10031;SDS011;5056;44.272;19.892;2023-12-14T12:55:19;29.10;;;26.00;;
10031;SDS011;5056;44.272;19.892;2023-12-14T12:57:47;24.10;;;21.80;;
10031;SDS011;5056;44.272;19.892;2023-12-14T13:00:16;19.83;;;18.02;;
10031;SDS011;5056;44.272;19.892;2023-12-14T13:02:45;18.40;;;16.63;;
10031;SDS011;5056;44.272;19.892;2023-12-14T13:05:13;21.02;;;19.02;;
10031;SDS011;5056;44.272;19.892;2023-12-14T13:07:43;22.08;;;19.98;;
10031;SDS011;5056;44.272;19.892;2023-12-14T13:10:13;19.17;;;17.38;;
10031;SDS011;5056;44.272;19.892;2023-12-14T13:12:42;20.48;;;18.45;;
10031;SDS011;5056;44.272;19.892;2023-12-14T13:15:10;20.48;;;18.48;;
10031;SDS011;5056;44.272;19.892;2023-12-14T13:17:37;20.92;;;19.02;;
10031;SDS011;5056;44.272;19.892;2023-12-14T13:20:06;17.92;;;16.33;;
10031;SDS011;5056;44.272;19.892;2023-12-14T13:22:35;18.90;;;17.15;;
10031;SDS011;5056;44.272;19.892;2023-12-14T13:25:05;19.80;;;18.00;;
10031;SDS011;5056;44.272;19.892;2023-12-14T13:27:34;17.70;;;16.10;;
10031;SDS011;5056;44.272;19.892;2023-12-14T13:30:03;19.15;;;17.25;;
10031;SDS011;5056;44.272;19.892;2023-12-14T13:32:31;22.85;;;20.65;;
10031;SDS011;5056;44.272;19.892;2023-12-14T13:34:58;22.13;;;19.92;;
10031;SDS011;5056;44.272;19.892;2023-12-14T13:37:28;21.45;;;19.40;;
10031;SDS011;5056;44.272;19.892;2023-12-14T13:39:55;18.23;;;16.50;;
10031;SDS011;5056;44.272;19.892;2023-12-14T13:42:21;23.98;;;21.75;;
10031;SDS011;5056;44.272;19.892;2023-12-14T13:44:51;26.25;;;23.63;;
10031;SDS011;5056;44.272;19.892;2023-12-14T13:47:18;47.63;;;43.15;;
10031;SDS011;5056;44.272;19.892;2023-12-14T13:49:45;33.67;;;30.05;;
10031;SDS011;5056;44.272;19.892;2023-12-14T13:52:12;25.98;;;23.48;;
10031;SDS011;5056;44.272;19.892;2023-12-14T13:54:41;32.65;;;29.17;;
10031;SDS011;5056;44.272;19.892;2023-12-14T13:59:54;24.20;;;21.80;;
10031;SDS011;5056;44.272;19.892;2023-12-14T14:02:21;23.13;;;20.73;;
10031;SDS011;5056;44.272;19.892;2023-12-14T14:04:52;20.33;;;18.33;;
10031;SDS011;5056;44.272;19.892;2023-12-14T14:07:19;23.53;;;21.17;;
10031;SDS011;5056;44.272;19.892;2023-12-14T14:09:48;21.10;;;18.90;;
10031;SDS011;5056;44.272;19.892;2023-12-14T14:12:22;19.58;;;17.58;;
10031;SDS011;5056;44.272;19.892;2023-12-14T14:14:50;22.73;;;20.35;;
10031;SDS011;5056;44.272;19.892;2023-12-14T14:17:20;23.45;;;21.15;;
10031;SDS011;5056;44.272;19.892;2023-12-14T14:19:47;39.90;;;35.60;;
10031;SDS011;5056;44.272;19.892;2023-12-14T14:22:14;43.95;;;39.50;;
10031;SDS011;5056;44.272;19.892;2023-12-14T14:24:42;51.47;;;46.57;;
10031;SDS011;5056;44.272;19.892;2023-12-14T14:27:10;41.90;;;38.10;;
10031;SDS011;5056;44.272;19.892;2023-12-14T14:29:37;39.83;;;35.93;;
10031;SDS011;5056;44.272;19.892;2023-12-14T14:32:06;49.90;;;45.07;;
10031;SDS011;5056;44.272;19.892;2023-12-14T14:34:44;40.07;;;36.33;;
10031;SDS011;5056;44.272;19.892;2023-12-14T14:37:11;35.93;;;32.57;;
10031;SDS011;5056;44.272;19.892;2023-12-14T14:39:42;31.35;;;28.38;;
10031;SDS011;5056;44.272;19.892;2023-12-14T14:42:09;28.17;;;25.58;;
10031;SDS011;5056;44.272;19.892;2023-12-14T14:44:39;24.85;;;22.35;;
10031;SDS011;5056;44.272;19.892;2023-12-14T14:47:06;29.00;;;26.13;;
10031;SDS011;5056;44.272;19.892;2023-12-14T14:49:35;25.50;;;23.10;;
10031;SDS011;5056;44.272;19.892;2023-12-14T14:52:04;34.13;;;30.97;;
10031;SDS011;5056;44.272;19.892;2023-12-14T14:54:32;28.58;;;25.98;;
10031;SDS011;5056;44.272;19.892;2023-12-14T14:56:59;25.98;;;23.58;;
10031;SDS011;5056;44.272;19.892;2023-12-14T14:59:32;35.22;;;31.80;;
10031;SDS011;5056;44.272;19.892;2023-12-14T15:01:59;35.00;;;31.50;;
10031;SDS011;5056;44.272;19.892;2023-12-14T15:04:28;35.70;;;32.05;;
10031;SDS011;5056;44.272;19.892;2023-12-14T15:06:57;29.50;;;26.58;;
10031;SDS011;5056;44.272;19.892;2023-12-14T15:09:26;32.78;;;29.60;;
10031;SDS011;5056;44.272;19.892;2023-12-14T15:11:55;31.42;;;28.30;;
10031;SDS011;5056;44.272;19.892;2023-12-14T15:14:22;28.43;;;25.83;;
10031;SDS011;5056;44.272;19.892;2023-12-14T15:16:49;30.92;;;27.85;;
10031;SDS011;5056;44.272;19.892;2023-12-14T15:19:16;27.58;;;25.15;;
10031;SDS011;5056;44.272;19.892;2023-12-14T15:21:43;28.35;;;25.65;;
10031;SDS011;5056;44.272;19.892;2023-12-14T15:24:10;30.65;;;27.77;;
10031;SDS011;5056;44.272;19.892;2023-12-14T15:26:41;29.58;;;26.67;;
10031;SDS011;5056;44.272;19.892;2023-12-14T15:29:10;29.38;;;26.63;;
10031;SDS011;5056;44.272;19.892;2023-12-14T15:31:38;28.40;;;25.80;;
10031;SDS011;5056;44.272;19.892;2023-12-14T15:34:07;31.17;;;28.27;;
10031;SDS011;5056;44.272;19.892;2023-12-14T15:36:35;37.40;;;34.03;;
10031;SDS011;5056;44.272;19.892;2023-12-14T15:39:05;41.60;;;37.73;;
10031;SDS011;5056;44.272;19.892;2023-12-14T15:41:32;47.58;;;43.08;;
10031;SDS011;5056;44.272;19.892;2023-12-14T15:44:01;39.83;;;36.10;;
10031;SDS011;5056;44.272;19.892;2023-12-14T15:46:29;39.50;;;35.90;;
10031;SDS011;5056;44.272;19.892;2023-12-14T15:49:09;43.67;;;39.53;;
10031;SDS011;5056;44.272;19.892;2023-12-14T15:51:38;40.47;;;36.70;;
10031;SDS011;5056;44.272;19.892;2023-12-14T15:54:06;36.45;;;33.03;;
10031;SDS011;5056;44.272;19.892;2023-12-14T15:56:33;37.47;;;33.90;;
10031;SDS011;5056;44.272;19.892;2023-12-14T15:59:04;36.20;;;32.65;;
10031;SDS011;5056;44.272;19.892;2023-12-14T16:01:32;56.47;;;50.80;;
10031;SDS011;5056;44.272;19.892;2023-12-14T16:04:01;42.60;;;38.50;;
10031;SDS011;5056;44.272;19.892;2023-12-14T16:06:31;36.40;;;32.83;;
10031;SDS011;5056;44.272;19.892;2023-12-14T16:09:01;32.63;;;29.42;;
10031;SDS011;5056;44.272;19.892;2023-12-14T16:11:28;28.07;;;25.57;;
10031;SDS011;5056;44.272;19.892;2023-12-14T16:13:56;28.15;;;25.65;;
10031;SDS011;5056;44.272;19.892;2023-12-14T16:16:31;39.42;;;35.83;;
10031;SDS011;5056;44.272;19.892;2023-12-14T16:18:59;43.75;;;39.65;;
10031;SDS011;5056;44.272;19.892;2023-12-14T16:21:28;38.00;;;34.53;;
10031;SDS011;5056;44.272;19.892;2023-12-14T16:23:55;38.72;;;35.33;;
10031;SDS011;5056;44.272;19.892;2023-12-14T16:26:29;30.70;;;27.90;;
10031;SDS011;5056;44.272;19.892;2023-12-14T16:28:58;31.90;;;28.92;;
10031;SDS011;5056;44.272;19.892;2023-12-14T16:31:24;32.20;;;28.98;;
10031;SDS011;5056;44.272;19.892;2023-12-14T16:33:55;32.28;;;29.33;;
10031;SDS011;5056;44.272;19.892;2023-12-14T16:36:24;29.83;;;27.10;;
10031;SDS011;5056;44.272;19.892;2023-12-14T16:38:52;29.13;;;26.33;;
10031;SDS011;5056;44.272;19.892;2023-12-14T16:41:28;32.70;;;29.63;;
10031;SDS011;5056;44.272;19.892;2023-12-14T16:43:55;41.45;;;37.25;;
10031;SDS011;5056;44.272;19.892;2023-12-14T16:46:22;41.37;;;37.17;;
10031;SDS011;5056;44.272;19.892;2023-12-14T16:48:50;43.30;;;39.03;;
10031;SDS011;5056;44.272;19.892;2023-12-14T16:51:19;44.92;;;40.60;;
10031;SDS011;5056;44.272;19.892;2023-12-14T16:53:47;41.88;;;37.67;;
10031;SDS011;5056;44.272;19.892;2023-12-14T16:56:16;41.90;;;37.70;;
10031;SDS011;5056;44.272;19.892;2023-12-14T16:58:43;44.00;;;39.60;;
10031;SDS011;5056;44.272;19.892;2023-12-14T17:01:16;50.78;;;45.60;;
10031;SDS011;5056;44.272;19.892;2023-12-14T17:03:46;66.00;;;57.72;;
10031;SDS011;5056;44.272;19.892;2023-12-14T17:06:16;60.65;;;54.00;;
10031;SDS011;5056;44.272;19.892;2023-12-14T17:08:45;60.40;;;52.35;;
10031;SDS011;5056;44.272;19.892;2023-12-14T17:11:13;92.47;;;76.47;;
10031;SDS011;5056;44.272;19.892;2023-12-14T17:13:43;93.55;;;78.45;;
10031;SDS011;5056;44.272;19.892;2023-12-14T17:16:13;73.38;;;66.03;;
10031;SDS011;5056;44.272;19.892;2023-12-14T17:18:46;58.00;;;51.78;;
10031;SDS011;5056;44.272;19.892;2023-12-14T17:21:17;57.17;;;51.00;;
10031;SDS011;5056;44.272;19.892;2023-12-14T17:23:47;56.65;;;50.72;;
10031;SDS011;5056;44.272;19.892;2023-12-14T17:26:15;54.80;;;49.30;;
10031;SDS011;5056;44.272;19.892;2023-12-14T17:28:43;55.67;;;50.08;;
10031;SDS011;5056;44.272;19.892;2023-12-14T17:31:12;71.60;;;63.90;;
10031;SDS011;5056;44.272;19.892;2023-12-14T17:33:40;62.90;;;56.50;;
10031;SDS011;5056;44.272;19.892;2023-12-14T17:36:16;58.15;;;52.40;;
10031;SDS011;5056;44.272;19.892;2023-12-14T17:38:54;54.13;;;48.83;;
10031;SDS011;5056;44.272;19.892;2023-12-14T17:41:21;144.65;;;107.28;;
10031;SDS011;5056;44.272;19.892;2023-12-14T17:43:54;156.23;;;102.55;;
10031;SDS011;5056;44.272;19.892;2023-12-14T17:46:24;116.17;;;82.33;;
10031;SDS011;5056;44.272;19.892;2023-12-14T17:49:00;60.97;;;49.95;;
10031;SDS011;5056;44.272;19.892;2023-12-14T17:54:07;75.28;;;64.00;;
10031;SDS011;5056;44.272;19.892;2023-12-14T17:56:35;72.73;;;64.53;;
10031;SDS011;5056;44.272;19.892;2023-12-14T17:59:06;74.88;;;66.68;;
10031;SDS011;5056;44.272;19.892;2023-12-14T18:01:34;79.63;;;71.22;;
10031;SDS011;5056;44.272;19.892;2023-12-14T18:04:10;66.93;;;60.03;;
10031;SDS011;5056;44.272;19.892;2023-12-14T18:06:40;65.10;;;58.50;;
10031;SDS011;5056;44.272;19.892;2023-12-14T18:09:10;41.17;;;37.05;;
10031;SDS011;5056;44.272;19.892;2023-12-14T18:11:37;43.90;;;39.60;;
10031;SDS011;5056;44.272;19.892;2023-12-14T18:14:10;41.97;;;37.47;;
10031;SDS011;5056;44.272;19.892;2023-12-14T18:16:45;44.55;;;39.75;;
10031;SDS011;5056;44.272;19.892;2023-12-14T18:19:11;48.60;;;43.35;;
10031;SDS011;5056;44.272;19.892;2023-12-14T18:21:39;45.03;;;36.70;;
10031;SDS011;5056;44.272;19.892;2023-12-14T18:24:18;39.13;;;33.40;;
10031;SDS011;5056;44.272;19.892;2023-12-14T18:26:49;38.22;;;33.97;;
10031;SDS011;5056;44.272;19.892;2023-12-14T18:29:18;32.90;;;29.53;;
10031;SDS011;5056;44.272;19.892;2023-12-14T18:31:45;36.22;;;32.28;;
10031;SDS011;5056;44.272;19.892;2023-12-14T18:34:14;33.72;;;29.95;;
10031;SDS011;5056;44.272;19.892;2023-12-14T18:36:45;37.15;;;33.17;;
10031;SDS011;5056;44.272;19.892;2023-12-14T18:39:12;34.65;;;31.15;;
10031;SDS011;5056;44.272;19.892;2023-12-14T18:41:41;34.63;;;31.17;;
10031;SDS011;5056;44.272;19.892;2023-12-14T18:44:10;32.83;;;29.65;;
10031;SDS011;5056;44.272;19.892;2023-12-14T18:46:41;31.73;;;28.73;;
10031;SDS011;5056;44.272;19.892;2023-12-14T18:49:08;32.08;;;28.88;;
10031;SDS011;5056;44.272;19.892;2023-12-14T18:51:48;78.32;;;70.50;;
10031;SDS011;5056;44.272;19.892;2023-12-14T18:54:18;54.25;;;48.75;;
10031;SDS011;5056;44.272;19.892;2023-12-14T18:57:00;47.40;;;42.50;;
10031;SDS011;5056;44.272;19.892;2023-12-14T18:59:28;40.08;;;35.88;;
10031;SDS011;5056;44.272;19.892;2023-12-14T19:01:55;44.13;;;39.53;;
10031;SDS011;5056;44.272;19.892;2023-12-14T19:04:22;38.20;;;34.20;;
10031;SDS011;5056;44.272;19.892;2023-12-14T19:06:53;46.47;;;41.72;;
10031;SDS011;5056;44.272;19.892;2023-12-14T19:09:40;41.72;;;37.20;;
10031;SDS011;5056;44.272;19.892;2023-12-14T19:12:12;59.63;;;53.28;;
10031;SDS011;5056;44.272;19.892;2023-12-14T19:14:39;51.23;;;45.77;;
10031;SDS011;5056;44.272;19.892;2023-12-14T19:17:12;42.95;;;38.55;;